Paddington, United Kingdom
Current Conditions -  °F | °C
As of 10:20 AM on Saturday 20 Dec 2014 (Local Time) from EGLC Reporting Station
Few Clouds Few Clouds  
Wind Chill:   Ceiling: Unl
Heat Index:   Visibility: 6mi
Dew Point:   Wind: 17mph
Humidity: 66%   Direction: 250°WSW
Pressure: 30.27"   Gusts: NA
Location:  51.51°N, 0.17°W
Report Text: EGLC 201020Z 25015KT 9999 FEW040 09/03 Q1025
Loading
Personal Weather Stations






























Interactive Weather Map New forecast layout! Learn more

10-Day Weather Forecast

Advertisements
Track Severe Weather on mobile